sensor_id;sensor_type;location;lat;lon;timestamp;P1;durP1;ratioP1;P2;durP2;ratioP2
63882;SDS011;50047;50.596;30.466;2023-06-19T00:01:12;10.30;;;6.00;;
63882;SDS011;50047;50.596;30.466;2023-06-19T00:03:40;9.30;;;5.90;;
63882;SDS011;50047;50.596;30.466;2023-06-19T00:06:08;9.70;;;6.00;;
63882;SDS011;50047;50.596;30.466;2023-06-19T00:08:36;8.60;;;5.40;;
63882;SDS011;50047;50.596;30.466;2023-06-19T00:11:03;9.30;;;5.90;;
63882;SDS011;50047;50.596;30.466;2023-06-19T00:13:31;9.90;;;6.10;;
63882;SDS011;50047;50.596;30.466;2023-06-19T00:16:01;9.30;;;6.30;;
63882;SDS011;50047;50.596;30.466;2023-06-19T00:18:28;9.40;;;6.10;;
63882;SDS011;50047;50.596;30.466;2023-06-19T00:20:57;9.90;;;6.00;;
63882;SDS011;50047;50.596;30.466;2023-06-19T00:23:25;10.40;;;6.20;;
63882;SDS011;50047;50.596;30.466;2023-06-19T00:25:53;9.00;;;6.10;;
63882;SDS011;50047;50.596;30.466;2023-06-19T00:28:20;11.90;;;6.20;;
63882;SDS011;50047;50.596;30.466;2023-06-19T00:30:48;9.80;;;6.30;;
63882;SDS011;50047;50.596;30.466;2023-06-19T00:33:16;7.80;;;5.80;;
63882;SDS011;50047;50.596;30.466;2023-06-19T00:35:44;10.70;;;6.70;;
63882;SDS011;50047;50.596;30.466;2023-06-19T00:38:12;11.70;;;7.60;;
63882;SDS011;50047;50.596;30.466;2023-06-19T00:40:40;10.00;;;6.90;;
63882;SDS011;50047;50.596;30.466;2023-06-19T00:43:09;9.20;;;6.70;;
63882;SDS011;50047;50.596;30.466;2023-06-19T00:45:37;9.60;;;6.60;;
63882;SDS011;50047;50.596;30.466;2023-06-19T00:48:06;11.70;;;6.80;;
63882;SDS011;50047;50.596;30.466;2023-06-19T00:50:34;9.50;;;6.70;;
63882;SDS011;50047;50.596;30.466;2023-06-19T00:53:01;8.30;;;6.50;;
63882;SDS011;50047;50.596;30.466;2023-06-19T00:55:32;8.40;;;6.70;;
63882;SDS011;50047;50.596;30.466;2023-06-19T00:58:00;9.70;;;6.90;;
63882;SDS011;50047;50.596;30.466;2023-06-19T01:00:29;8.70;;;6.50;;
63882;SDS011;50047;50.596;30.466;2023-06-19T01:02:58;13.30;;;6.80;;
63882;SDS011;50047;50.596;30.466;2023-06-19T01:05:28;7.40;;;6.30;;
63882;SDS011;50047;50.596;30.466;2023-06-19T01:08:00;8.00;;;5.90;;
63882;SDS011;50047;50.596;30.466;2023-06-19T01:10:47;13.00;;;6.40;;
63882;SDS011;50047;50.596;30.466;2023-06-19T01:13:53;10.40;;;6.70;;
63882;SDS011;50047;50.596;30.466;2023-06-19T01:16:16;9.60;;;6.40;;
63882;SDS011;50047;50.596;30.466;2023-06-19T01:18:44;9.90;;;6.90;;
63882;SDS011;50047;50.596;30.466;2023-06-19T01:21:14;9.90;;;6.90;;
63882;SDS011;50047;50.596;30.466;2023-06-19T01:23:44;11.30;;;6.90;;
63882;SDS011;50047;50.596;30.466;2023-06-19T01:26:13;11.40;;;6.10;;
63882;SDS011;50047;50.596;30.466;2023-06-19T01:28:42;13.90;;;6.60;;
63882;SDS011;50047;50.596;30.466;2023-06-19T01:31:12;8.40;;;6.80;;
63882;SDS011;50047;50.596;30.466;2023-06-19T01:33:44;13.00;;;6.90;;
63882;SDS011;50047;50.596;30.466;2023-06-19T01:36:15;11.50;;;7.20;;
63882;SDS011;50047;50.596;30.466;2023-06-19T01:38:45;8.50;;;6.70;;
63882;SDS011;50047;50.596;30.466;2023-06-19T01:41:16;9.30;;;6.40;;
63882;SDS011;50047;50.596;30.466;2023-06-19T01:43:45;9.10;;;6.30;;
63882;SDS011;50047;50.596;30.466;2023-06-19T01:46:14;6.90;;;6.10;;
63882;SDS011;50047;50.596;30.466;2023-06-19T01:48:42;11.90;;;6.90;;
63882;SDS011;50047;50.596;30.466;2023-06-19T01:51:10;8.30;;;6.50;;
63882;SDS011;50047;50.596;30.466;2023-06-19T01:53:39;10.30;;;6.90;;
63882;SDS011;50047;50.596;30.466;2023-06-19T01:56:07;8.90;;;6.60;;
63882;SDS011;50047;50.596;30.466;2023-06-19T01:58:34;9.90;;;6.60;;
63882;SDS011;50047;50.596;30.466;2023-06-19T02:01:02;11.30;;;6.70;;
63882;SDS011;50047;50.596;30.466;2023-06-19T02:03:30;10.10;;;7.00;;
63882;SDS011;50047;50.596;30.466;2023-06-19T02:05:58;10.50;;;6.70;;
63882;SDS011;50047;50.596;30.466;2023-06-19T02:08:26;9.70;;;6.90;;
63882;SDS011;50047;50.596;30.466;2023-06-19T02:10:54;12.20;;;6.90;;
63882;SDS011;50047;50.596;30.466;2023-06-19T02:13:23;9.50;;;6.60;;
63882;SDS011;50047;50.596;30.466;2023-06-19T02:15:51;7.80;;;6.40;;
63882;SDS011;50047;50.596;30.466;2023-06-19T02:18:18;10.20;;;6.60;;
63882;SDS011;50047;50.596;30.466;2023-06-19T02:20:46;8.30;;;6.60;;
63882;SDS011;50047;50.596;30.466;2023-06-19T02:23:15;9.70;;;6.30;;
63882;SDS011;50047;50.596;30.466;2023-06-19T02:25:42;7.80;;;6.80;;
63882;SDS011;50047;50.596;30.466;2023-06-19T02:28:10;11.00;;;7.00;;
63882;SDS011;50047;50.596;30.466;2023-06-19T02:30:38;9.60;;;6.70;;
63882;SDS011;50047;50.596;30.466;2023-06-19T02:33:08;10.70;;;6.30;;
63882;SDS011;50047;50.596;30.466;2023-06-19T02:35:35;8.30;;;6.70;;
63882;SDS011;50047;50.596;30.466;2023-06-19T02:38:03;8.30;;;6.30;;
63882;SDS011;50047;50.596;30.466;2023-06-19T02:40:32;11.10;;;6.30;;
63882;SDS011;50047;50.596;30.466;2023-06-19T02:43:00;9.40;;;6.70;;
63882;SDS011;50047;50.596;30.466;2023-06-19T02:45:28;11.50;;;6.80;;
63882;SDS011;50047;50.596;30.466;2023-06-19T02:47:56;12.30;;;6.80;;
63882;SDS011;50047;50.596;30.466;2023-06-19T02:50:24;10.70;;;7.20;;
63882;SDS011;50047;50.596;30.466;2023-06-19T02:52:52;10.90;;;6.90;;
63882;SDS011;50047;50.596;30.466;2023-06-19T02:55:20;10.80;;;7.00;;
63882;SDS011;50047;50.596;30.466;2023-06-19T02:57:48;11.70;;;7.10;;
63882;SDS011;50047;50.596;30.466;2023-06-19T03:00:15;10.80;;;6.50;;
63882;SDS011;50047;50.596;30.466;2023-06-19T03:02:43;7.60;;;6.40;;
63882;SDS011;50047;50.596;30.466;2023-06-19T03:05:16;8.80;;;6.50;;
63882;SDS011;50047;50.596;30.466;2023-06-19T03:07:44;9.40;;;6.40;;
63882;SDS011;50047;50.596;30.466;2023-06-19T03:10:12;11.00;;;6.70;;
63882;SDS011;50047;50.596;30.466;2023-06-19T03:12:40;11.20;;;6.40;;
63882;SDS011;50047;50.596;30.466;2023-06-19T03:15:08;10.70;;;6.60;;
63882;SDS011;50047;50.596;30.466;2023-06-19T03:17:38;9.30;;;6.20;;
63882;SDS011;50047;50.596;30.466;2023-06-19T03:20:08;8.30;;;5.70;;
63882;SDS011;50047;50.596;30.466;2023-06-19T03:22:42;11.40;;;6.80;;
63882;SDS011;50047;50.596;30.466;2023-06-19T03:25:10;9.30;;;6.40;;
63882;SDS011;50047;50.596;30.466;2023-06-19T03:27:38;7.80;;;6.30;;
63882;SDS011;50047;50.596;30.466;2023-06-19T03:30:06;13.00;;;6.60;;
63882;SDS011;50047;50.596;30.466;2023-06-19T03:32:38;9.70;;;6.30;;
63882;SDS011;50047;50.596;30.466;2023-06-19T03:35:07;11.30;;;6.50;;
63882;SDS011;50047;50.596;30.466;2023-06-19T03:40:06;7.80;;;5.90;;
63882;SDS011;50047;50.596;30.466;2023-06-19T03:42:38;10.20;;;6.10;;
63882;SDS011;50047;50.596;30.466;2023-06-19T03:45:06;9.30;;;6.20;;
63882;SDS011;50047;50.596;30.466;2023-06-19T03:47:35;8.90;;;6.30;;
63882;SDS011;50047;50.596;30.466;2023-06-19T03:50:03;9.40;;;6.10;;
63882;SDS011;50047;50.596;30.466;2023-06-19T03:52:47;11.00;;;6.60;;
63882;SDS011;50047;50.596;30.466;2023-06-19T03:55:15;9.90;;;6.10;;
63882;SDS011;50047;50.596;30.466;2023-06-19T03:57:43;10.90;;;6.30;;
63882;SDS011;50047;50.596;30.466;2023-06-19T04:00:11;7.40;;;6.20;;
63882;SDS011;50047;50.596;30.466;2023-06-19T04:02:42;9.20;;;6.20;;
63882;SDS011;50047;50.596;30.466;2023-06-19T04:05:10;11.40;;;6.10;;
63882;SDS011;50047;50.596;30.466;2023-06-19T04:07:38;9.10;;;5.90;;
63882;SDS011;50047;50.596;30.466;2023-06-19T04:10:06;8.50;;;6.70;;
63882;SDS011;50047;50.596;30.466;2023-06-19T04:12:34;9.50;;;6.90;;
63882;SDS011;50047;50.596;30.466;2023-06-19T04:15:04;8.10;;;6.70;;
63882;SDS011;50047;50.596;30.466;2023-06-19T04:17:32;7.50;;;5.90;;
63882;SDS011;50047;50.596;30.466;2023-06-19T04:20:00;12.60;;;6.70;;
63882;SDS011;50047;50.596;30.466;2023-06-19T04:22:28;9.80;;;6.40;;
63882;SDS011;50047;50.596;30.466;2023-06-19T04:24:55;11.50;;;6.00;;
63882;SDS011;50047;50.596;30.466;2023-06-19T04:27:23;9.30;;;6.40;;
63882;SDS011;50047;50.596;30.466;2023-06-19T04:29:51;7.80;;;6.20;;
63882;SDS011;50047;50.596;30.466;2023-06-19T04:32:20;11.60;;;6.90;;
63882;SDS011;50047;50.596;30.466;2023-06-19T04:34:48;9.10;;;7.00;;
63882;SDS011;50047;50.596;30.466;2023-06-19T04:37:16;10.70;;;6.60;;
63882;SDS011;50047;50.596;30.466;2023-06-19T04:39:46;10.60;;;6.70;;
63882;SDS011;50047;50.596;30.466;2023-06-19T04:42:15;13.10;;;7.10;;
63882;SDS011;50047;50.596;30.466;2023-06-19T04:44:47;10.00;;;7.00;;
63882;SDS011;50047;50.596;30.466;2023-06-19T04:47:16;11.10;;;7.00;;
63882;SDS011;50047;50.596;30.466;2023-06-19T04:49:46;9.60;;;6.70;;
63882;SDS011;50047;50.596;30.466;2023-06-19T04:52:13;9.40;;;6.80;;
63882;SDS011;50047;50.596;30.466;2023-06-19T04:54:41;10.20;;;6.50;;
63882;SDS011;50047;50.596;30.466;2023-06-19T04:57:09;9.30;;;6.80;;
63882;SDS011;50047;50.596;30.466;2023-06-19T04:59:38;9.60;;;6.70;;
63882;SDS011;50047;50.596;30.466;2023-06-19T05:02:06;11.60;;;6.80;;
63882;SDS011;50047;50.596;30.466;2023-06-19T05:04:34;11.30;;;6.70;;
63882;SDS011;50047;50.596;30.466;2023-06-19T05:07:02;10.10;;;6.60;;
63882;SDS011;50047;50.596;30.466;2023-06-19T05:09:30;12.20;;;6.80;;
63882;SDS011;50047;50.596;30.466;2023-06-19T05:11:58;8.70;;;6.70;;
63882;SDS011;50047;50.596;30.466;2023-06-19T05:14:25;11.90;;;7.30;;
63882;SDS011;50047;50.596;30.466;2023-06-19T05:16:53;9.10;;;6.90;;
63882;SDS011;50047;50.596;30.466;2023-06-19T05:19:21;13.20;;;6.90;;
63882;SDS011;50047;50.596;30.466;2023-06-19T05:21:49;9.20;;;6.70;;
63882;SDS011;50047;50.596;30.466;2023-06-19T05:24:17;16.10;;;7.20;;
63882;SDS011;50047;50.596;30.466;2023-06-19T05:26:44;11.00;;;6.90;;
63882;SDS011;50047;50.596;30.466;2023-06-19T05:29:12;10.00;;;6.80;;
63882;SDS011;50047;50.596;30.466;2023-06-19T05:31:40;10.40;;;6.80;;
63882;SDS011;50047;50.596;30.466;2023-06-19T05:34:08;10.30;;;6.60;;
63882;SDS011;50047;50.596;30.466;2023-06-19T05:36:36;15.90;;;6.80;;
63882;SDS011;50047;50.596;30.466;2023-06-19T05:39:04;12.00;;;6.90;;
63882;SDS011;50047;50.596;30.466;2023-06-19T05:41:31;11.60;;;7.00;;
63882;SDS011;50047;50.596;30.466;2023-06-19T05:44:00;12.50;;;6.80;;
63882;SDS011;50047;50.596;30.466;2023-06-19T05:46:28;10.90;;;6.90;;
63882;SDS011;50047;50.596;30.466;2023-06-19T05:48:55;13.30;;;7.20;;
63882;SDS011;50047;50.596;30.466;2023-06-19T05:51:23;15.20;;;6.80;;
63882;SDS011;50047;50.596;30.466;2023-06-19T05:53:51;16.20;;;6.90;;
63882;SDS011;50047;50.596;30.466;2023-06-19T05:56:19;13.20;;;6.80;;
63882;SDS011;50047;50.596;30.466;2023-06-19T05:58:47;11.20;;;6.80;;
63882;SDS011;50047;50.596;30.466;2023-06-19T06:01:15;12.90;;;6.90;;
63882;SDS011;50047;50.596;30.466;2023-06-19T06:03:45;17.60;;;7.30;;
63882;SDS011;50047;50.596;30.466;2023-06-19T06:06:12;13.20;;;7.20;;
63882;SDS011;50047;50.596;30.466;2023-06-19T06:08:55;13.70;;;6.70;;
63882;SDS011;50047;50.596;30.466;2023-06-19T06:11:24;16.90;;;7.20;;
63882;SDS011;50047;50.596;30.466;2023-06-19T06:13:52;13.10;;;6.50;;
63882;SDS011;50047;50.596;30.466;2023-06-19T06:16:19;12.30;;;7.00;;
63882;SDS011;50047;50.596;30.466;2023-06-19T06:18:47;12.90;;;6.90;;
63882;SDS011;50047;50.596;30.466;2023-06-19T06:21:15;11.50;;;7.10;;
63882;SDS011;50047;50.596;30.466;2023-06-19T06:23:43;13.90;;;9.00;;
63882;SDS011;50047;50.596;30.466;2023-06-19T06:26:12;18.40;;;7.70;;
63882;SDS011;50047;50.596;30.466;2023-06-19T06:28:40;14.50;;;9.30;;
63882;SDS011;50047;50.596;30.466;2023-06-19T06:31:07;15.40;;;7.90;;
63882;SDS011;50047;50.596;30.466;2023-06-19T06:33:35;12.90;;;8.80;;
63882;SDS011;50047;50.596;30.466;2023-06-19T06:36:03;16.30;;;8.90;;
63882;SDS011;50047;50.596;30.466;2023-06-19T06:38:34;12.10;;;8.60;;
63882;SDS011;50047;50.596;30.466;2023-06-19T06:41:01;11.80;;;8.90;;
63882;SDS011;50047;50.596;30.466;2023-06-19T06:43:29;18.20;;;7.60;;
63882;SDS011;50047;50.596;30.466;2023-06-19T06:45:57;8.50;;;7.10;;
63882;SDS011;50047;50.596;30.466;2023-06-19T06:48:24;12.50;;;6.70;;
63882;SDS011;50047;50.596;30.466;2023-06-19T06:50:52;14.50;;;6.40;;
63882;SDS011;50047;50.596;30.466;2023-06-19T06:53:28;11.70;;;6.60;;
63882;SDS011;50047;50.596;30.466;2023-06-19T06:55:58;12.60;;;6.50;;
63882;SDS011;50047;50.596;30.466;2023-06-19T07:00:55;13.40;;;6.80;;
63882;SDS011;50047;50.596;30.466;2023-06-19T07:03:23;16.20;;;6.60;;
63882;SDS011;50047;50.596;30.466;2023-06-19T07:05:51;12.80;;;6.50;;
63882;SDS011;50047;50.596;30.466;2023-06-19T07:08:19;8.40;;;6.10;;
63882;SDS011;50047;50.596;30.466;2023-06-19T07:10:47;15.00;;;6.50;;
63882;SDS011;50047;50.596;30.466;2023-06-19T07:13:16;10.50;;;6.60;;
63882;SDS011;50047;50.596;30.466;2023-06-19T07:15:43;12.90;;;6.30;;
63882;SDS011;50047;50.596;30.466;2023-06-19T07:18:11;15.50;;;6.60;;
63882;SDS011;50047;50.596;30.466;2023-06-19T07:20:39;12.80;;;6.80;;
63882;SDS011;50047;50.596;30.466;2023-06-19T07:23:06;8.80;;;6.60;;
63882;SDS011;50047;50.596;30.466;2023-06-19T07:25:36;16.80;;;6.70;;
63882;SDS011;50047;50.596;30.466;2023-06-19T07:28:03;13.90;;;6.80;;
63882;SDS011;50047;50.596;30.466;2023-06-19T07:30:31;9.30;;;6.60;;
63882;SDS011;50047;50.596;30.466;2023-06-19T07:32:59;12.10;;;7.40;;
63882;SDS011;50047;50.596;30.466;2023-06-19T07:35:27;20.80;;;7.40;;
63882;SDS011;50047;50.596;30.466;2023-06-19T07:37:55;14.70;;;7.10;;
63882;SDS011;50047;50.596;30.466;2023-06-19T07:40:23;13.70;;;7.50;;
63882;SDS011;50047;50.596;30.466;2023-06-19T07:42:54;10.10;;;6.70;;
63882;SDS011;50047;50.596;30.466;2023-06-19T07:45:22;14.00;;;7.80;;
63882;SDS011;50047;50.596;30.466;2023-06-19T07:47:54;12.80;;;7.30;;
63882;SDS011;50047;50.596;30.466;2023-06-19T07:50:23;16.30;;;7.90;;
63882;SDS011;50047;50.596;30.466;2023-06-19T07:55:22;17.00;;;9.00;;
63882;SDS011;50047;50.596;30.466;2023-06-19T07:57:49;14.20;;;8.70;;
63882;SDS011;50047;50.596;30.466;2023-06-19T08:00:17;13.80;;;8.00;;
63882;SDS011;50047;50.596;30.466;2023-06-19T08:02:45;17.70;;;8.40;;
63882;SDS011;50047;50.596;30.466;2023-06-19T08:05:13;12.00;;;7.70;;
63882;SDS011;50047;50.596;30.466;2023-06-19T08:07:41;14.50;;;7.90;;
63882;SDS011;50047;50.596;30.466;2023-06-19T08:12:05;14.20;;;8.50;;
63882;SDS011;50047;50.596;30.466;2023-06-19T08:14:33;17.30;;;8.20;;
63882;SDS011;50047;50.596;30.466;2023-06-19T08:17:01;9.90;;;7.40;;
63882;SDS011;50047;50.596;30.466;2023-06-19T08:19:29;14.40;;;7.70;;
63882;SDS011;50047;50.596;30.466;2023-06-19T08:21:56;14.50;;;7.50;;
63882;SDS011;50047;50.596;30.466;2023-06-19T08:24:24;9.90;;;7.40;;
63882;SDS011;50047;50.596;30.466;2023-06-19T08:26:52;16.90;;;7.40;;
63882;SDS011;50047;50.596;30.466;2023-06-19T08:29:19;11.90;;;7.60;;
63882;SDS011;50047;50.596;30.466;2023-06-19T08:31:50;13.30;;;8.20;;
63882;SDS011;50047;50.596;30.466;2023-06-19T08:34:18;13.10;;;7.90;;
63882;SDS011;50047;50.596;30.466;2023-06-19T08:36:45;12.00;;;7.60;;
63882;SDS011;50047;50.596;30.466;2023-06-19T08:39:13;12.60;;;7.30;;
63882;SDS011;50047;50.596;30.466;2023-06-19T08:41:41;13.10;;;8.40;;
63882;SDS011;50047;50.596;30.466;2023-06-19T08:44:09;11.00;;;8.30;;
63882;SDS011;50047;50.596;30.466;2023-06-19T08:46:37;10.10;;;7.70;;
63882;SDS011;50047;50.596;30.466;2023-06-19T08:49:07;14.40;;;8.40;;
63882;SDS011;50047;50.596;30.466;2023-06-19T08:51:37;11.90;;;7.70;;
63882;SDS011;50047;50.596;30.466;2023-06-19T08:54:06;20.90;;;7.60;;
63882;SDS011;50047;50.596;30.466;2023-06-19T08:56:38;12.00;;;7.30;;
63882;SDS011;50047;50.596;30.466;2023-06-19T09:01:46;15.70;;;7.90;;
63882;SDS011;50047;50.596;30.466;2023-06-19T09:04:39;11.80;;;7.00;;
63882;SDS011;50047;50.596;30.466;2023-06-19T09:07:07;13.10;;;7.00;;
63882;SDS011;50047;50.596;30.466;2023-06-19T09:09:45;11.40;;;7.60;;
63882;SDS011;50047;50.596;30.466;2023-06-19T09:12:14;13.10;;;8.50;;
63882;SDS011;50047;50.596;30.466;2023-06-19T09:14:46;14.60;;;8.00;;
63882;SDS011;50047;50.596;30.466;2023-06-19T09:17:18;13.60;;;7.20;;
63882;SDS011;50047;50.596;30.466;2023-06-19T09:19:53;13.60;;;6.80;;
63882;SDS011;50047;50.596;30.466;2023-06-19T09:22:24;9.80;;;7.10;;
63882;SDS011;50047;50.596;30.466;2023-06-19T09:25:02;14.70;;;6.90;;
63882;SDS011;50047;50.596;30.466;2023-06-19T09:27:33;8.90;;;6.10;;
63882;SDS011;50047;50.596;30.466;2023-06-19T09:30:01;12.00;;;6.90;;
63882;SDS011;50047;50.596;30.466;2023-06-19T09:32:30;11.50;;;6.60;;
63882;SDS011;50047;50.596;30.466;2023-06-19T09:34:58;7.80;;;5.80;;
63882;SDS011;50047;50.596;30.466;2023-06-19T09:37:26;11.20;;;6.30;;
63882;SDS011;50047;50.596;30.466;2023-06-19T09:40:13;10.30;;;6.10;;
63882;SDS011;50047;50.596;30.466;2023-06-19T09:42:42;11.00;;;6.40;;
63882;SDS011;50047;50.596;30.466;2023-06-19T09:45:19;15.60;;;6.00;;
63882;SDS011;50047;50.596;30.466;2023-06-19T09:47:51;13.00;;;6.50;;
63882;SDS011;50047;50.596;30.466;2023-06-19T09:50:22;10.50;;;5.80;;
63882;SDS011;50047;50.596;30.466;2023-06-19T09:52:55;14.30;;;6.20;;
63882;SDS011;50047;50.596;30.466;2023-06-19T09:55:23;13.70;;;6.40;;
63882;SDS011;50047;50.596;30.466;2023-06-19T09:57:51;13.60;;;6.10;;
63882;SDS011;50047;50.596;30.466;2023-06-19T10:00:21;10.50;;;6.10;;
63882;SDS011;50047;50.596;30.466;2023-06-19T10:02:54;13.90;;;6.70;;
63882;SDS011;50047;50.596;30.466;2023-06-19T10:05:29;13.70;;;6.10;;
63882;SDS011;50047;50.596;30.466;2023-06-19T10:07:57;15.00;;;6.30;;
63882;SDS011;50047;50.596;30.466;2023-06-19T10:10:27;13.60;;;5.90;;
63882;SDS011;50047;50.596;30.466;2023-06-19T10:13:13;9.60;;;5.40;;
63882;SDS011;50047;50.596;30.466;2023-06-19T10:15:44;11.90;;;5.40;;
63882;SDS011;50047;50.596;30.466;2023-06-19T10:18:16;7.80;;;5.60;;
63882;SDS011;50047;50.596;30.466;2023-06-19T10:20:45;12.90;;;5.70;;
63882;SDS011;50047;50.596;30.466;2023-06-19T10:23:19;14.40;;;5.70;;
63882;SDS011;50047;50.596;30.466;2023-06-19T10:26:05;9.30;;;5.30;;
63882;SDS011;50047;50.596;30.466;2023-06-19T10:28:33;6.70;;;5.20;;
63882;SDS011;50047;50.596;30.466;2023-06-19T10:31:02;11.20;;;5.60;;
63882;SDS011;50047;50.596;30.466;2023-06-19T10:33:31;8.90;;;5.40;;
63882;SDS011;50047;50.596;30.466;2023-06-19T10:36:00;8.70;;;5.20;;
63882;SDS011;50047;50.596;30.466;2023-06-19T10:38:29;5.80;;;5.10;;
63882;SDS011;50047;50.596;30.466;2023-06-19T10:40:57;8.50;;;5.70;;
63882;SDS011;50047;50.596;30.466;2023-06-19T10:43:25;9.80;;;5.80;;
63882;SDS011;50047;50.596;30.466;2023-06-19T10:45:58;8.70;;;5.80;;
63882;SDS011;50047;50.596;30.466;2023-06-19T10:48:26;9.00;;;5.30;;
63882;SDS011;50047;50.596;30.466;2023-06-19T10:50:55;9.10;;;5.80;;
63882;SDS011;50047;50.596;30.466;2023-06-19T10:53:27;10.80;;;5.70;;
63882;SDS011;50047;50.596;30.466;2023-06-19T10:55:56;6.40;;;5.20;;
63882;SDS011;50047;50.596;30.466;2023-06-19T10:58:27;10.80;;;5.50;;
63882;SDS011;50047;50.596;30.466;2023-06-19T11:00:55;10.40;;;5.40;;
63882;SDS011;50047;50.596;30.466;2023-06-19T11:03:24;6.80;;;5.20;;
63882;SDS011;50047;50.596;30.466;2023-06-19T11:05:52;11.00;;;5.70;;
63882;SDS011;50047;50.596;30.466;2023-06-19T11:08:21;7.50;;;5.10;;
63882;SDS011;50047;50.596;30.466;2023-06-19T11:10:49;7.20;;;5.10;;
63882;SDS011;50047;50.596;30.466;2023-06-19T11:13:18;12.40;;;5.90;;
63882;SDS011;50047;50.596;30.466;2023-06-19T11:15:47;9.60;;;5.30;;
63882;SDS011;50047;50.596;30.466;2023-06-19T11:18:17;8.50;;;5.10;;
63882;SDS011;50047;50.596;30.466;2023-06-19T11:20:49;7.90;;;5.20;;
63882;SDS011;50047;50.596;30.466;2023-06-19T11:23:28;7.70;;;5.80;;
63882;SDS011;50047;50.596;30.466;2023-06-19T11:26:04;7.90;;;5.30;;
63882;SDS011;50047;50.596;30.466;2023-06-19T11:28:37;6.40;;;5.00;;
63882;SDS011;50047;50.596;30.466;2023-06-19T11:31:37;11.70;;;5.60;;
63882;SDS011;50047;50.596;30.466;2023-06-19T11:34:05;10.50;;;5.80;;
63882;SDS011;50047;50.596;30.466;2023-06-19T11:36:36;8.00;;;5.90;;
63882;SDS011;50047;50.596;30.466;2023-06-19T11:39:08;9.60;;;5.80;;
63882;SDS011;50047;50.596;30.466;2023-06-19T11:41:38;8.10;;;5.40;;
63882;SDS011;50047;50.596;30.466;2023-06-19T11:44:07;10.10;;;5.50;;
63882;SDS011;50047;50.596;30.466;2023-06-19T11:46:38;9.00;;;4.80;;
63882;SDS011;50047;50.596;30.466;2023-06-19T11:49:10;8.10;;;6.00;;
63882;SDS011;50047;50.596;30.466;2023-06-19T11:51:45;9.90;;;5.30;;
63882;SDS011;50047;50.596;30.466;2023-06-19T11:54:14;10.10;;;5.30;;
63882;SDS011;50047;50.596;30.466;2023-06-19T11:56:42;6.70;;;4.90;;
63882;SDS011;50047;50.596;30.466;2023-06-19T11:59:09;7.60;;;5.30;;
63882;SDS011;50047;50.596;30.466;2023-06-19T12:01:37;8.20;;;5.70;;
63882;SDS011;50047;50.596;30.466;2023-06-19T12:04:06;6.50;;;5.20;;
63882;SDS011;50047;50.596;30.466;2023-06-19T12:06:34;6.70;;;5.30;;
63882;SDS011;50047;50.596;30.466;2023-06-19T12:09:05;7.20;;;5.20;;
63882;SDS011;50047;50.596;30.466;2023-06-19T12:11:33;6.60;;;5.00;;
63882;SDS011;50047;50.596;30.466;2023-06-19T12:14:01;6.50;;;5.60;;
63882;SDS011;50047;50.596;30.466;2023-06-19T12:16:29;8.90;;;5.30;;
63882;SDS011;50047;50.596;30.466;2023-06-19T12:18:58;6.90;;;4.80;;
63882;SDS011;50047;50.596;30.466;2023-06-19T12:21:25;5.80;;;4.90;;
63882;SDS011;50047;50.596;30.466;2023-06-19T12:24:04;9.10;;;5.10;;
63882;SDS011;50047;50.596;30.466;2023-06-19T12:26:34;7.70;;;5.00;;
63882;SDS011;50047;50.596;30.466;2023-06-19T12:29:06;6.10;;;5.00;;
63882;SDS011;50047;50.596;30.466;2023-06-19T12:31:34;6.50;;;5.10;;
63882;SDS011;50047;50.596;30.466;2023-06-19T12:34:03;6.30;;;5.00;;
63882;SDS011;50047;50.596;30.466;2023-06-19T12:36:53;5.70;;;5.10;;
63882;SDS011;50047;50.596;30.466;2023-06-19T12:39:21;10.00;;;5.30;;
63882;SDS011;50047;50.596;30.466;2023-06-19T12:41:49;7.50;;;5.40;;
63882;SDS011;50047;50.596;30.466;2023-06-19T12:44:17;7.90;;;5.30;;
63882;SDS011;50047;50.596;30.466;2023-06-19T12:46:44;6.80;;;5.10;;
63882;SDS011;50047;50.596;30.466;2023-06-19T12:49:12;8.60;;;5.70;;
63882;SDS011;50047;50.596;30.466;2023-06-19T12:51:40;10.10;;;5.30;;
63882;SDS011;50047;50.596;30.466;2023-06-19T12:54:08;8.10;;;5.60;;
63882;SDS011;50047;50.596;30.466;2023-06-19T12:56:54;6.90;;;5.00;;
63882;SDS011;50047;50.596;30.466;2023-06-19T12:59:22;8.30;;;5.10;;
63882;SDS011;50047;50.596;30.466;2023-06-19T13:01:59;8.30;;;5.80;;
63882;SDS011;50047;50.596;30.466;2023-06-19T13:04:27;10.00;;;6.00;;
63882;SDS011;50047;50.596;30.466;2023-06-19T13:06:54;7.30;;;5.90;;
63882;SDS011;50047;50.596;30.466;2023-06-19T13:09:22;9.50;;;5.80;;
63882;SDS011;50047;50.596;30.466;2023-06-19T13:11:50;10.30;;;5.70;;
63882;SDS011;50047;50.596;30.466;2023-06-19T13:14:18;8.70;;;6.00;;
63882;SDS011;50047;50.596;30.466;2023-06-19T13:16:46;9.30;;;6.30;;
63882;SDS011;50047;50.596;30.466;2023-06-19T13:19:14;7.50;;;5.90;;
63882;SDS011;50047;50.596;30.466;2023-06-19T13:21:42;7.40;;;6.40;;
63882;SDS011;50047;50.596;30.466;2023-06-19T13:24:10;8.30;;;5.60;;
63882;SDS011;50047;50.596;30.466;2023-06-19T13:26:38;10.20;;;5.80;;
63882;SDS011;50047;50.596;30.466;2023-06-19T13:29:06;8.70;;;5.60;;
63882;SDS011;50047;50.596;30.466;2023-06-19T13:31:34;8.80;;;5.90;;
63882;SDS011;50047;50.596;30.466;2023-06-19T13:34:01;14.10;;;7.00;;
63882;SDS011;50047;50.596;30.466;2023-06-19T13:36:31;11.60;;;5.80;;
63882;SDS011;50047;50.596;30.466;2023-06-19T13:38:59;9.50;;;5.70;;
63882;SDS011;50047;50.596;30.466;2023-06-19T13:41:27;9.60;;;6.30;;
63882;SDS011;50047;50.596;30.466;2023-06-19T13:43:55;13.10;;;6.10;;
63882;SDS011;50047;50.596;30.466;2023-06-19T13:46:23;8.00;;;5.40;;
63882;SDS011;50047;50.596;30.466;2023-06-19T13:48:52;16.90;;;5.90;;
63882;SDS011;50047;50.596;30.466;2023-06-19T13:51:20;9.50;;;5.60;;
63882;SDS011;50047;50.596;30.466;2023-06-19T13:53:50;13.60;;;6.20;;
63882;SDS011;50047;50.596;30.466;2023-06-19T13:56:19;6.90;;;5.40;;
63882;SDS011;50047;50.596;30.466;2023-06-19T13:58:46;7.70;;;5.20;;
63882;SDS011;50047;50.596;30.466;2023-06-19T14:01:15;9.80;;;5.90;;
63882;SDS011;50047;50.596;30.466;2023-06-19T14:04:01;8.50;;;5.80;;
63882;SDS011;50047;50.596;30.466;2023-06-19T14:07:00;8.30;;;5.10;;
63882;SDS011;50047;50.596;30.466;2023-06-19T14:09:28;10.10;;;5.40;;
63882;SDS011;50047;50.596;30.466;2023-06-19T14:11:56;7.00;;;5.40;;
63882;SDS011;50047;50.596;30.466;2023-06-19T14:14:23;6.60;;;4.80;;
63882;SDS011;50047;50.596;30.466;2023-06-19T14:16:51;10.20;;;5.10;;
63882;SDS011;50047;50.596;30.466;2023-06-19T14:19:19;7.30;;;5.40;;
63882;SDS011;50047;50.596;30.466;2023-06-19T14:21:47;15.40;;;5.50;;
63882;SDS011;50047;50.596;30.466;2023-06-19T14:24:14;11.60;;;5.60;;
63882;SDS011;50047;50.596;30.466;2023-06-19T14:26:43;11.20;;;5.60;;
63882;SDS011;50047;50.596;30.466;2023-06-19T14:29:11;15.20;;;5.30;;
63882;SDS011;50047;50.596;30.466;2023-06-19T14:34:10;9.10;;;4.90;;
63882;SDS011;50047;50.596;30.466;2023-06-19T14:36:38;7.40;;;5.50;;
63882;SDS011;50047;50.596;30.466;2023-06-19T14:39:06;7.30;;;5.50;;
63882;SDS011;50047;50.596;30.466;2023-06-19T14:41:33;7.00;;;5.40;;
63882;SDS011;50047;50.596;30.466;2023-06-19T14:44:01;9.70;;;5.60;;
63882;SDS011;50047;50.596;30.466;2023-06-19T14:46:44;6.40;;;4.90;;
63882;SDS011;50047;50.596;30.466;2023-06-19T14:49:13;6.30;;;5.30;;
63882;SDS011;50047;50.596;30.466;2023-06-19T14:51:41;8.50;;;5.60;;
63882;SDS011;50047;50.596;30.466;2023-06-19T14:54:11;9.50;;;5.10;;
63882;SDS011;50047;50.596;30.466;2023-06-19T14:56:38;7.40;;;4.90;;